sensor_id;sensor_type;location;lat;lon;timestamp;temperature;humidity
69895;DHT22;57172;52.034;5.090;2023-01-19T00:00:53;3.60;83.00
69895;DHT22;57172;52.034;5.090;2023-01-19T00:03:20;3.60;83.00
69895;DHT22;57172;52.034;5.090;2023-01-19T00:05:48;3.50;82.80
69895;DHT22;57172;52.034;5.090;2023-01-19T00:08:15;3.50;82.90
69895;DHT22;57172;52.034;5.090;2023-01-19T00:10:45;3.50;83.10
69895;DHT22;57172;52.034;5.090;2023-01-19T00:13:13;3.50;83.20
69895;DHT22;57172;52.034;5.090;2023-01-19T00:15:40;3.50;83.30
69895;DHT22;57172;52.034;5.090;2023-01-19T00:18:08;3.50;83.40
69895;DHT22;57172;52.034;5.090;2023-01-19T00:20:37;3.50;83.50
69895;DHT22;57172;52.034;5.090;2023-01-19T00:23:04;3.50;83.60
69895;DHT22;57172;52.034;5.090;2023-01-19T00:25:33;3.50;83.60
69895;DHT22;57172;52.034;5.090;2023-01-19T00:28:01;3.60;83.70
69895;DHT22;57172;52.034;5.090;2023-01-19T00:30:28;3.60;83.70
69895;DHT22;57172;52.034;5.090;2023-01-19T00:32:56;3.50;83.70
69895;DHT22;57172;52.034;5.090;2023-01-19T00:35:23;3.50;83.80
69895;DHT22;57172;52.034;5.090;2023-01-19T00:37:50;3.50;83.90
69895;DHT22;57172;52.034;5.090;2023-01-19T00:40:18;3.50;83.90
69895;DHT22;57172;52.034;5.090;2023-01-19T00:42:45;3.50;84.00
69895;DHT22;57172;52.034;5.090;2023-01-19T00:45:16;3.60;84.10
69895;DHT22;57172;52.034;5.090;2023-01-19T00:47:45;3.60;84.00
69895;DHT22;57172;52.034;5.090;2023-01-19T00:50:13;3.50;84.00
69895;DHT22;57172;52.034;5.090;2023-01-19T00:52:43;3.50;84.00
69895;DHT22;57172;52.034;5.090;2023-01-19T00:55:11;3.50;84.10
69895;DHT22;57172;52.034;5.090;2023-01-19T00:57:39;3.40;84.20
69895;DHT22;57172;52.034;5.090;2023-01-19T01:00:17;3.40;84.50
69895;DHT22;57172;52.034;5.090;2023-01-19T01:02:46;3.40;84.30
69895;DHT22;57172;52.034;5.090;2023-01-19T01:05:14;3.30;84.60
69895;DHT22;57172;52.034;5.090;2023-01-19T01:07:41;3.30;84.90
69895;DHT22;57172;52.034;5.090;2023-01-19T01:10:13;3.30;85.10
69895;DHT22;57172;52.034;5.090;2023-01-19T01:12:41;3.30;85.00
69895;DHT22;57172;52.034;5.090;2023-01-19T01:15:24;3.30;85.00
69895;DHT22;57172;52.034;5.090;2023-01-19T01:17:52;3.30;84.90
69895;DHT22;57172;52.034;5.090;2023-01-19T01:20:22;3.30;84.80
69895;DHT22;57172;52.034;5.090;2023-01-19T01:22:51;3.20;84.80
69895;DHT22;57172;52.034;5.090;2023-01-19T01:25:19;3.20;84.80
69895;DHT22;57172;52.034;5.090;2023-01-19T01:27:48;3.10;84.90
69895;DHT22;57172;52.034;5.090;2023-01-19T01:30:15;3.10;85.20
69895;DHT22;57172;52.034;5.090;2023-01-19T01:32:42;3.10;85.20
69895;DHT22;57172;52.034;5.090;2023-01-19T01:35:10;3.10;85.40
69895;DHT22;57172;52.034;5.090;2023-01-19T01:37:38;3.20;85.80
69895;DHT22;57172;52.034;5.090;2023-01-19T01:40:06;3.20;86.10
69895;DHT22;57172;52.034;5.090;2023-01-19T01:42:33;3.30;86.10
69895;DHT22;57172;52.034;5.090;2023-01-19T01:45:06;3.40;86.00
69895;DHT22;57172;52.034;5.090;2023-01-19T01:47:43;3.40;85.90
69895;DHT22;57172;52.034;5.090;2023-01-19T01:50:20;3.50;85.90
69895;DHT22;57172;52.034;5.090;2023-01-19T01:52:56;3.60;86.00
69895;DHT22;57172;52.034;5.090;2023-01-19T01:55:37;3.60;86.00
69895;DHT22;57172;52.034;5.090;2023-01-19T01:58:07;3.70;86.00
69895;DHT22;57172;52.034;5.090;2023-01-19T02:00:35;3.70;86.10
69895;DHT22;57172;52.034;5.090;2023-01-19T02:03:23;3.80;86.10
69895;DHT22;57172;52.034;5.090;2023-01-19T02:05:53;3.80;86.10
69895;DHT22;57172;52.034;5.090;2023-01-19T02:08:40;3.90;86.10
69895;DHT22;57172;52.034;5.090;2023-01-19T02:11:29;3.90;85.80
69895;DHT22;57172;52.034;5.090;2023-01-19T02:14:15;3.90;85.60
69895;DHT22;57172;52.034;5.090;2023-01-19T02:16:42;3.90;85.40
69895;DHT22;57172;52.034;5.090;2023-01-19T02:19:14;3.90;85.30
69895;DHT22;57172;52.034;5.090;2023-01-19T02:22:05;3.90;85.20
69895;DHT22;57172;52.034;5.090;2023-01-19T02:24:35;3.90;84.80
69895;DHT22;57172;52.034;5.090;2023-01-19T02:27:03;3.80;84.70
69895;DHT22;57172;52.034;5.090;2023-01-19T02:29:31;3.80;84.50
69895;DHT22;57172;52.034;5.090;2023-01-19T02:31:59;3.70;84.30
69895;DHT22;57172;52.034;5.090;2023-01-19T02:34:28;3.70;84.40
69895;DHT22;57172;52.034;5.090;2023-01-19T02:37:00;3.60;84.40
69895;DHT22;57172;52.034;5.090;2023-01-19T02:39:51;3.60;84.40
69895;DHT22;57172;52.034;5.090;2023-01-19T02:42:28;3.60;84.60
69895;DHT22;57172;52.034;5.090;2023-01-19T02:44:56;3.60;84.70
69895;DHT22;57172;52.034;5.090;2023-01-19T02:47:23;3.60;84.80
69895;DHT22;57172;52.034;5.090;2023-01-19T02:49:55;3.60;84.70
69895;DHT22;57172;52.034;5.090;2023-01-19T02:52:22;3.60;84.70
69895;DHT22;57172;52.034;5.090;2023-01-19T02:55:17;3.60;84.60
69895;DHT22;57172;52.034;5.090;2023-01-19T03:00:41;3.50;84.00
69895;DHT22;57172;52.034;5.090;2023-01-19T03:03:33;3.30;83.30
69895;DHT22;57172;52.034;5.090;2023-01-19T03:06:29;3.00;83.10
69895;DHT22;57172;52.034;5.090;2023-01-19T03:11:31;2.60;83.40
69895;DHT22;57172;52.034;5.090;2023-01-19T03:14:13;2.60;83.80
69895;DHT22;57172;52.034;5.090;2023-01-19T03:16:50;2.50;84.20
69895;DHT22;57172;52.034;5.090;2023-01-19T03:19:47;2.40;84.50
69895;DHT22;57172;52.034;5.090;2023-01-19T03:22:24;2.40;84.90
69895;DHT22;57172;52.034;5.090;2023-01-19T03:24:58;2.40;85.00
69895;DHT22;57172;52.034;5.090;2023-01-19T03:27:30;2.50;85.10
69895;DHT22;57172;52.034;5.090;2023-01-19T03:30:06;2.50;85.10
69895;DHT22;57172;52.034;5.090;2023-01-19T03:32:50;2.50;85.10
69895;DHT22;57172;52.034;5.090;2023-01-19T03:35:20;2.50;85.10
69895;DHT22;57172;52.034;5.090;2023-01-19T03:37:50;2.50;85.00
69895;DHT22;57172;52.034;5.090;2023-01-19T03:40:19;2.50;84.80
69895;DHT22;57172;52.034;5.090;2023-01-19T03:42:48;2.50;84.80
69895;DHT22;57172;52.034;5.090;2023-01-19T03:45:24;2.40;84.80
69895;DHT22;57172;52.034;5.090;2023-01-19T03:47:53;2.30;84.90
69895;DHT22;57172;52.034;5.090;2023-01-19T03:50:25;2.30;84.80
69895;DHT22;57172;52.034;5.090;2023-01-19T03:53:10;2.20;84.60
69895;DHT22;57172;52.034;5.090;2023-01-19T03:55:39;2.10;85.00
69895;DHT22;57172;52.034;5.090;2023-01-19T03:58:07;2.10;85.30
69895;DHT22;57172;52.034;5.090;2023-01-19T04:00:34;2.10;85.40
69895;DHT22;57172;52.034;5.090;2023-01-19T04:03:03;2.10;85.50
69895;DHT22;57172;52.034;5.090;2023-01-19T04:05:31;2.20;85.60
69895;DHT22;57172;52.034;5.090;2023-01-19T04:07:58;2.20;85.70
69895;DHT22;57172;52.034;5.090;2023-01-19T04:10:25;2.20;85.80
69895;DHT22;57172;52.034;5.090;2023-01-19T04:12:59;2.30;85.90
69895;DHT22;57172;52.034;5.090;2023-01-19T04:15:28;2.30;85.90
69895;DHT22;57172;52.034;5.090;2023-01-19T04:17:59;2.40;85.90
69895;DHT22;57172;52.034;5.090;2023-01-19T04:20:27;2.40;85.90
69895;DHT22;57172;52.034;5.090;2023-01-19T04:22:57;2.50;85.90
69895;DHT22;57172;52.034;5.090;2023-01-19T04:25:25;2.50;85.90
69895;DHT22;57172;52.034;5.090;2023-01-19T04:27:53;2.60;85.90
69895;DHT22;57172;52.034;5.090;2023-01-19T04:30:20;2.60;85.70
69895;DHT22;57172;52.034;5.090;2023-01-19T04:32:48;2.70;85.60
69895;DHT22;57172;52.034;5.090;2023-01-19T04:35:15;2.70;85.50
69895;DHT22;57172;52.034;5.090;2023-01-19T04:37:42;2.70;85.40
69895;DHT22;57172;52.034;5.090;2023-01-19T04:40:11;2.70;85.40
69895;DHT22;57172;52.034;5.090;2023-01-19T04:42:38;2.70;85.20
69895;DHT22;57172;52.034;5.090;2023-01-19T04:45:05;2.70;85.20
69895;DHT22;57172;52.034;5.090;2023-01-19T04:47:32;2.70;85.20
69895;DHT22;57172;52.034;5.090;2023-01-19T04:49:59;2.70;85.20
69895;DHT22;57172;52.034;5.090;2023-01-19T04:52:31;2.70;85.30
69895;DHT22;57172;52.034;5.090;2023-01-19T04:55:02;2.60;85.10
69895;DHT22;57172;52.034;5.090;2023-01-19T04:57:29;2.60;85.30
69895;DHT22;57172;52.034;5.090;2023-01-19T04:59:57;2.70;85.20
69895;DHT22;57172;52.034;5.090;2023-01-19T05:02:24;2.70;85.20
69895;DHT22;57172;52.034;5.090;2023-01-19T05:04:51;2.60;85.20
69895;DHT22;57172;52.034;5.090;2023-01-19T05:07:18;2.60;85.00
69895;DHT22;57172;52.034;5.090;2023-01-19T05:09:45;2.60;85.20
69895;DHT22;57172;52.034;5.090;2023-01-19T05:12:12;2.70;85.40
69895;DHT22;57172;52.034;5.090;2023-01-19T05:14:41;2.70;85.70
69895;DHT22;57172;52.034;5.090;2023-01-19T05:17:09;2.80;85.70
69895;DHT22;57172;52.034;5.090;2023-01-19T05:19:36;2.90;85.80
69895;DHT22;57172;52.034;5.090;2023-01-19T05:22:04;2.90;85.90
69895;DHT22;57172;52.034;5.090;2023-01-19T05:24:31;3.00;85.90
69895;DHT22;57172;52.034;5.090;2023-01-19T05:26:59;3.10;85.60
69895;DHT22;57172;52.034;5.090;2023-01-19T05:29:26;3.10;85.60
69895;DHT22;57172;52.034;5.090;2023-01-19T05:31:53;3.10;85.40
69895;DHT22;57172;52.034;5.090;2023-01-19T05:34:20;3.10;85.20
69895;DHT22;57172;52.034;5.090;2023-01-19T05:36:47;3.10;84.90
69895;DHT22;57172;52.034;5.090;2023-01-19T05:39:14;3.10;84.70
69895;DHT22;57172;52.034;5.090;2023-01-19T05:41:42;3.00;84.70
69895;DHT22;57172;52.034;5.090;2023-01-19T05:44:11;3.00;84.70
69895;DHT22;57172;52.034;5.090;2023-01-19T05:46:39;3.00;84.80
69895;DHT22;57172;52.034;5.090;2023-01-19T05:49:06;2.90;84.80
69895;DHT22;57172;52.034;5.090;2023-01-19T05:51:34;2.90;84.80
69895;DHT22;57172;52.034;5.090;2023-01-19T05:54:04;2.90;84.70
69895;DHT22;57172;52.034;5.090;2023-01-19T05:56:32;2.90;84.60
69895;DHT22;57172;52.034;5.090;2023-01-19T05:58:59;2.90;84.70
69895;DHT22;57172;52.034;5.090;2023-01-19T06:01:26;2.90;84.70
69895;DHT22;57172;52.034;5.090;2023-01-19T06:03:54;2.90;84.60
69895;DHT22;57172;52.034;5.090;2023-01-19T06:06:21;2.90;84.70
69895;DHT22;57172;52.034;5.090;2023-01-19T06:08:49;2.90;84.70
69895;DHT22;57172;52.034;5.090;2023-01-19T06:11:16;2.90;84.70
69895;DHT22;57172;52.034;5.090;2023-01-19T06:13:43;3.00;84.80
69895;DHT22;57172;52.034;5.090;2023-01-19T06:16:10;3.00;84.80
69895;DHT22;57172;52.034;5.090;2023-01-19T06:18:37;3.00;84.80
69895;DHT22;57172;52.034;5.090;2023-01-19T06:21:06;3.00;84.80
69895;DHT22;57172;52.034;5.090;2023-01-19T06:23:34;3.10;84.80
69895;DHT22;57172;52.034;5.090;2023-01-19T06:26:03;3.10;84.80
69895;DHT22;57172;52.034;5.090;2023-01-19T06:28:30;3.10;84.90
69895;DHT22;57172;52.034;5.090;2023-01-19T06:30:57;3.10;84.90
69895;DHT22;57172;52.034;5.090;2023-01-19T06:33:24;3.20;85.00
69895;DHT22;57172;52.034;5.090;2023-01-19T06:35:53;3.20;85.00
69895;DHT22;57172;52.034;5.090;2023-01-19T06:38:20;3.30;85.00
69895;DHT22;57172;52.034;5.090;2023-01-19T06:40:53;3.30;84.90
69895;DHT22;57172;52.034;5.090;2023-01-19T06:43:20;3.30;85.00
69895;DHT22;57172;52.034;5.090;2023-01-19T06:45:48;3.30;84.90
69895;DHT22;57172;52.034;5.090;2023-01-19T06:48:15;3.40;84.80
69895;DHT22;57172;52.034;5.090;2023-01-19T06:50:46;3.40;84.50
69895;DHT22;57172;52.034;5.090;2023-01-19T06:53:14;3.40;84.40
69895;DHT22;57172;52.034;5.090;2023-01-19T06:55:43;3.40;84.20
69895;DHT22;57172;52.034;5.090;2023-01-19T06:58:10;3.40;83.90
69895;DHT22;57172;52.034;5.090;2023-01-19T07:00:38;3.40;83.80
69895;DHT22;57172;52.034;5.090;2023-01-19T07:03:08;3.30;83.70
69895;DHT22;57172;52.034;5.090;2023-01-19T07:05:43;3.30;83.70
69895;DHT22;57172;52.034;5.090;2023-01-19T07:08:11;3.30;83.60
69895;DHT22;57172;52.034;5.090;2023-01-19T07:10:39;3.30;83.50
69895;DHT22;57172;52.034;5.090;2023-01-19T07:13:27;3.20;83.60
69895;DHT22;57172;52.034;5.090;2023-01-19T07:15:54;3.20;83.60
69895;DHT22;57172;52.034;5.090;2023-01-19T07:18:21;3.20;83.60
69895;DHT22;57172;52.034;5.090;2023-01-19T07:20:48;3.10;83.60
69895;DHT22;57172;52.034;5.090;2023-01-19T07:23:15;3.10;83.70
69895;DHT22;57172;52.034;5.090;2023-01-19T07:25:45;3.10;83.80
69895;DHT22;57172;52.034;5.090;2023-01-19T07:28:12;3.00;84.00
69895;DHT22;57172;52.034;5.090;2023-01-19T07:30:42;3.10;84.10
69895;DHT22;57172;52.034;5.090;2023-01-19T07:33:09;3.10;84.30
69895;DHT22;57172;52.034;5.090;2023-01-19T07:35:36;3.10;84.40
69895;DHT22;57172;52.034;5.090;2023-01-19T07:38:03;3.10;84.30
69895;DHT22;57172;52.034;5.090;2023-01-19T07:40:30;3.10;84.40
69895;DHT22;57172;52.034;5.090;2023-01-19T07:42:57;3.20;84.40
69895;DHT22;57172;52.034;5.090;2023-01-19T07:45:24;3.20;84.50
69895;DHT22;57172;52.034;5.090;2023-01-19T07:47:53;3.20;84.40
69895;DHT22;57172;52.034;5.090;2023-01-19T07:50:20;3.30;84.30
69895;DHT22;57172;52.034;5.090;2023-01-19T07:52:50;3.30;84.30
69895;DHT22;57172;52.034;5.090;2023-01-19T07:55:20;3.30;84.30
69895;DHT22;57172;52.034;5.090;2023-01-19T07:57:48;3.30;84.30
69895;DHT22;57172;52.034;5.090;2023-01-19T08:00:18;3.40;84.30
69895;DHT22;57172;52.034;5.090;2023-01-19T08:02:47;3.40;84.40
69895;DHT22;57172;52.034;5.090;2023-01-19T08:05:18;3.50;84.30
69895;DHT22;57172;52.034;5.090;2023-01-19T08:07:45;3.50;84.10
69895;DHT22;57172;52.034;5.090;2023-01-19T08:10:13;3.60;84.00
69895;DHT22;57172;52.034;5.090;2023-01-19T08:12:42;3.60;83.80
69895;DHT22;57172;52.034;5.090;2023-01-19T08:15:09;3.60;83.60
69895;DHT22;57172;52.034;5.090;2023-01-19T08:17:37;3.70;83.50
69895;DHT22;57172;52.034;5.090;2023-01-19T08:20:04;3.70;83.20
69895;DHT22;57172;52.034;5.090;2023-01-19T08:22:32;3.70;83.10
69895;DHT22;57172;52.034;5.090;2023-01-19T08:24:59;3.80;83.30
69895;DHT22;57172;52.034;5.090;2023-01-19T08:27:26;3.80;83.30
69895;DHT22;57172;52.034;5.090;2023-01-19T08:29:53;3.80;83.30
69895;DHT22;57172;52.034;5.090;2023-01-19T08:32:22;3.80;83.20
69895;DHT22;57172;52.034;5.090;2023-01-19T08:34:49;3.90;82.70
69895;DHT22;57172;52.034;5.090;2023-01-19T08:37:16;3.90;82.80
69895;DHT22;57172;52.034;5.090;2023-01-19T08:39:43;3.90;82.90
69895;DHT22;57172;52.034;5.090;2023-01-19T08:42:10;3.90;82.60
69895;DHT22;57172;52.034;5.090;2023-01-19T08:44:37;4.00;82.30
69895;DHT22;57172;52.034;5.090;2023-01-19T08:47:18;4.00;82.20
69895;DHT22;57172;52.034;5.090;2023-01-19T08:49:45;4.00;82.10
69895;DHT22;57172;52.034;5.090;2023-01-19T08:52:12;4.00;82.00
69895;DHT22;57172;52.034;5.090;2023-01-19T08:54:40;4.00;81.80
69895;DHT22;57172;52.034;5.090;2023-01-19T08:57:07;4.00;81.90
69895;DHT22;57172;52.034;5.090;2023-01-19T08:59:34;4.10;81.80
69895;DHT22;57172;52.034;5.090;2023-01-19T09:02:01;4.10;81.80
69895;DHT22;57172;52.034;5.090;2023-01-19T09:04:28;4.10;82.70
69895;DHT22;57172;52.034;5.090;2023-01-19T09:06:55;4.30;83.50
69895;DHT22;57172;52.034;5.090;2023-01-19T09:09:22;4.40;83.20
69895;DHT22;57172;52.034;5.090;2023-01-19T09:11:49;4.40;82.30
69895;DHT22;57172;52.034;5.090;2023-01-19T09:14:16;4.50;83.60
69895;DHT22;57172;52.034;5.090;2023-01-19T09:16:43;4.60;83.90
69895;DHT22;57172;52.034;5.090;2023-01-19T09:19:10;4.70;83.20
69895;DHT22;57172;52.034;5.090;2023-01-19T09:21:37;4.70;83.00
69895;DHT22;57172;52.034;5.090;2023-01-19T09:24:04;4.70;82.20
69895;DHT22;57172;52.034;5.090;2023-01-19T09:26:31;4.70;82.20
69895;DHT22;57172;52.034;5.090;2023-01-19T09:28:58;4.90;84.10
69895;DHT22;57172;52.034;5.090;2023-01-19T09:31:25;5.10;85.70
69895;DHT22;57172;52.034;5.090;2023-01-19T09:33:53;5.40;86.20
69895;DHT22;57172;52.034;5.090;2023-01-19T09:36:20;5.70;87.80
69895;DHT22;57172;52.034;5.090;2023-01-19T09:38:47;6.00;90.70
69895;DHT22;57172;52.034;5.090;2023-01-19T09:41:19;6.50;93.60
69895;DHT22;57172;52.034;5.090;2023-01-19T09:43:55;7.10;95.30
69895;DHT22;57172;52.034;5.090;2023-01-19T09:46:39;7.70;96.00
69895;DHT22;57172;52.034;5.090;2023-01-19T09:49:23;8.10;94.20
69895;DHT22;57172;52.034;5.090;2023-01-19T09:51:52;8.50;94.00
69895;DHT22;57172;52.034;5.090;2023-01-19T09:54:28;9.10;94.90
69895;DHT22;57172;52.034;5.090;2023-01-19T09:56:56;9.30;90.20
69895;DHT22;57172;52.034;5.090;2023-01-19T09:59:31;9.60;90.30
69895;DHT22;57172;52.034;5.090;2023-01-19T10:10:24;10.70;86.50
69895;DHT22;57172;52.034;5.090;2023-01-19T10:13:20;10.80;85.00
69895;DHT22;57172;52.034;5.090;2023-01-19T10:18:42;11.30;83.30
69895;DHT22;57172;52.034;5.090;2023-01-19T10:21:26;11.50;83.10
69895;DHT22;57172;52.034;5.090;2023-01-19T10:26:49;12.30;81.40
69895;DHT22;57172;52.034;5.090;2023-01-19T10:29:36;12.60;84.10
69895;DHT22;57172;52.034;5.090;2023-01-19T10:32:13;13.10;82.70
69895;DHT22;57172;52.034;5.090;2023-01-19T10:34:42;13.50;82.80
69895;DHT22;57172;52.034;5.090;2023-01-19T10:42:39;13.40;76.60
69895;DHT22;57172;52.034;5.090;2023-01-19T10:45:22;13.30;75.20
69895;DHT22;57172;52.034;5.090;2023-01-19T10:47:50;13.10;74.30
69895;DHT22;57172;52.034;5.090;2023-01-19T10:52:59;13.70;76.10
69895;DHT22;57172;52.034;5.090;2023-01-19T10:55:33;13.90;75.90
69895;DHT22;57172;52.034;5.090;2023-01-19T10:58:01;13.90;72.40
69895;DHT22;57172;52.034;5.090;2023-01-19T11:02:54;13.80;73.60
69895;DHT22;57172;52.034;5.090;2023-01-19T11:05:27;14.00;74.00
69895;DHT22;57172;52.034;5.090;2023-01-19T11:07:54;14.10;73.60
69895;DHT22;57172;52.034;5.090;2023-01-19T11:10:23;14.50;75.70
69895;DHT22;57172;52.034;5.090;2023-01-19T11:13:03;14.50;71.30
69895;DHT22;57172;52.034;5.090;2023-01-19T11:15:43;14.20;68.50
69895;DHT22;57172;52.034;5.090;2023-01-19T11:18:42;13.70;66.70
69895;DHT22;57172;52.034;5.090;2023-01-19T11:21:13;13.10;69.00
69895;DHT22;57172;52.034;5.090;2023-01-19T11:23:46;13.00;70.40
69895;DHT22;57172;52.034;5.090;2023-01-19T11:26:29;13.40;75.30
69895;DHT22;57172;52.034;5.090;2023-01-19T11:29:00;13.90;69.30
69895;DHT22;57172;52.034;5.090;2023-01-19T11:34:13;12.60;63.40
69895;DHT22;57172;52.034;5.090;2023-01-19T11:36:59;12.10;63.10
69895;DHT22;57172;52.034;5.090;2023-01-19T11:39:28;11.90;67.30
69895;DHT22;57172;52.034;5.090;2023-01-19T11:42:01;12.10;68.30
69895;DHT22;57172;52.034;5.090;2023-01-19T11:44:42;12.40;69.20
69895;DHT22;57172;52.034;5.090;2023-01-19T11:47:17;12.80;73.10
69895;DHT22;57172;52.034;5.090;2023-01-19T11:55:27;13.70;65.40
69895;DHT22;57172;52.034;5.090;2023-01-19T11:57:57;13.70;67.20
69895;DHT22;57172;52.034;5.090;2023-01-19T12:06:03;13.50;64.80
69895;DHT22;57172;52.034;5.090;2023-01-19T12:08:36;13.40;66.00
69895;DHT22;57172;52.034;5.090;2023-01-19T12:11:08;13.70;67.40
69895;DHT22;57172;52.034;5.090;2023-01-19T12:13:37;13.90;66.40
69895;DHT22;57172;52.034;5.090;2023-01-19T12:16:08;13.60;61.70
69895;DHT22;57172;52.034;5.090;2023-01-19T12:18:40;12.80;60.60
69895;DHT22;57172;52.034;5.090;2023-01-19T12:21:08;12.30;59.70
69895;DHT22;57172;52.034;5.090;2023-01-19T12:26:36;11.00;58.60
69895;DHT22;57172;52.034;5.090;2023-01-19T12:29:16;10.40;60.70
69895;DHT22;57172;52.034;5.090;2023-01-19T12:31:44;10.00;61.00
69895;DHT22;57172;52.034;5.090;2023-01-19T12:34:28;9.70;61.70
69895;DHT22;57172;52.034;5.090;2023-01-19T12:37:01;9.40;62.30
69895;DHT22;57172;52.034;5.090;2023-01-19T12:39:32;9.10;63.40
69895;DHT22;57172;52.034;5.090;2023-01-19T12:42:25;9.00;63.40
69895;DHT22;57172;52.034;5.090;2023-01-19T12:45:11;8.80;63.80
69895;DHT22;57172;52.034;5.090;2023-01-19T12:47:40;9.00;68.20
69895;DHT22;57172;52.034;5.090;2023-01-19T12:50:22;9.80;74.70
69895;DHT22;57172;52.034;5.090;2023-01-19T12:53:02;10.70;75.90
69895;DHT22;57172;52.034;5.090;2023-01-19T12:55:35;11.60;73.30
69895;DHT22;57172;52.034;5.090;2023-01-19T12:58:13;12.20;70.30
69895;DHT22;57172;52.034;5.090;2023-01-19T13:01:03;12.00;60.10
69895;DHT22;57172;52.034;5.090;2023-01-19T13:04:10;11.20;60.50
69895;DHT22;57172;52.034;5.090;2023-01-19T13:09:29;10.70;65.40
69895;DHT22;57172;52.034;5.090;2023-01-19T13:12:29;11.20;67.00
69895;DHT22;57172;52.034;5.090;2023-01-19T13:15:27;11.40;64.40
69895;DHT22;57172;52.034;5.090;2023-01-19T13:18:00;11.20;62.30
69895;DHT22;57172;52.034;5.090;2023-01-19T13:20:43;10.80;59.80
69895;DHT22;57172;52.034;5.090;2023-01-19T13:24:02;10.30;60.30
69895;DHT22;57172;52.034;5.090;2023-01-19T13:26:13;9.80;60.90
69895;DHT22;57172;52.034;5.090;2023-01-19T13:28:44;9.40;58.10
69895;DHT22;57172;52.034;5.090;2023-01-19T13:31:12;9.10;62.10
69895;DHT22;57172;52.034;5.090;2023-01-19T13:33:54;9.60;69.70
69895;DHT22;57172;52.034;5.090;2023-01-19T13:38:58;10.50;67.70
69895;DHT22;57172;52.034;5.090;2023-01-19T13:41:28;10.70;68.70
69895;DHT22;57172;52.034;5.090;2023-01-19T13:44:00;11.10;69.50
69895;DHT22;57172;52.034;5.090;2023-01-19T13:46:29;11.80;72.70
69895;DHT22;57172;52.034;5.090;2023-01-19T13:49:00;12.50;70.30
69895;DHT22;57172;52.034;5.090;2023-01-19T13:51:29;12.70;66.00
69895;DHT22;57172;52.034;5.090;2023-01-19T13:53:57;12.60;65.90
69895;DHT22;57172;52.034;5.090;2023-01-19T13:56:29;12.60;65.70
69895;DHT22;57172;52.034;5.090;2023-01-19T13:59:20;12.60;65.20
69895;DHT22;57172;52.034;5.090;2023-01-19T14:01:49;12.80;64.20
69895;DHT22;57172;52.034;5.090;2023-01-19T14:06:51;12.10;61.00
69895;DHT22;57172;52.034;5.090;2023-01-19T14:09:21;12.10;65.30
69895;DHT22;57172;52.034;5.090;2023-01-19T14:14:33;11.80;61.00
69895;DHT22;57172;52.034;5.090;2023-01-19T14:17:04;11.60;63.30
69895;DHT22;57172;52.034;5.090;2023-01-19T14:19:53;11.80;64.50
69895;DHT22;57172;52.034;5.090;2023-01-19T14:22:20;12.10;64.60
69895;DHT22;57172;52.034;5.090;2023-01-19T14:24:47;12.30;64.80
69895;DHT22;57172;52.034;5.090;2023-01-19T14:27:23;12.50;65.80
69895;DHT22;57172;52.034;5.090;2023-01-19T14:29:52;12.80;64.80
69895;DHT22;57172;52.034;5.090;2023-01-19T14:32:24;12.90;64.50
69895;DHT22;57172;52.034;5.090;2023-01-19T14:37:35;13.10;63.40
69895;DHT22;57172;52.034;5.090;2023-01-19T14:42:44;13.10;65.30
69895;DHT22;57172;52.034;5.090;2023-01-19T14:45:31;13.20;64.20
69895;DHT22;57172;52.034;5.090;2023-01-19T14:48:03;13.40;63.60
69895;DHT22;57172;52.034;5.090;2023-01-19T14:50:39;13.30;63.50
69895;DHT22;57172;52.034;5.090;2023-01-19T14:53:27;13.10;60.60
69895;DHT22;57172;52.034;5.090;2023-01-19T14:56:03;12.40;57.50
69895;DHT22;57172;52.034;5.090;2023-01-19T14:58:33;11.70;57.10
69895;DHT22;57172;52.034;5.090;2023-01-19T15:01:01;11.20;58.30
69895;DHT22;57172;52.034;5.090;2023-01-19T15:03:29;10.70;58.20
69895;DHT22;57172;52.034;5.090;2023-01-19T15:06:13;10.30;57.60
69895;DHT22;57172;52.034;5.090;2023-01-19T15:08:41;9.80;59.40
69895;DHT22;57172;52.034;5.090;2023-01-19T15:11:10;9.50;59.80
69895;DHT22;57172;52.034;5.090;2023-01-19T15:13:39;9.20;60.30
69895;DHT22;57172;52.034;5.090;2023-01-19T15:16:07;9.00;60.00
69895;DHT22;57172;52.034;5.090;2023-01-19T15:18:35;8.70;60.60
69895;DHT22;57172;52.034;5.090;2023-01-19T15:21:02;8.50;61.60
69895;DHT22;57172;52.034;5.090;2023-01-19T15:23:31;8.20;61.00
69895;DHT22;57172;52.034;5.090;2023-01-19T15:25:59;8.00;61.60
69895;DHT22;57172;52.034;5.090;2023-01-19T15:28:27;7.90;61.50
69895;DHT22;57172;52.034;5.090;2023-01-19T15:30:54;7.70;61.50
69895;DHT22;57172;52.034;5.090;2023-01-19T15:33:25;7.50;60.60
69895;DHT22;57172;52.034;5.090;2023-01-19T15:35:52;7.30;61.20
69895;DHT22;57172;52.034;5.090;2023-01-19T15:38:22;7.10;62.50
69895;DHT22;57172;52.034;5.090;2023-01-19T15:40:52;7.10;63.20
69895;DHT22;57172;52.034;5.090;2023-01-19T15:43:19;6.90;62.20
69895;DHT22;57172;52.034;5.090;2023-01-19T15:46:10;6.70;62.60
69895;DHT22;57172;52.034;5.090;2023-01-19T15:48:39;6.70;63.80
69895;DHT22;57172;52.034;5.090;2023-01-19T15:51:14;6.60;63.50
69895;DHT22;57172;52.034;5.090;2023-01-19T15:53:42;6.60;63.90
69895;DHT22;57172;52.034;5.090;2023-01-19T15:56:19;6.50;64.30
69895;DHT22;57172;52.034;5.090;2023-01-19T15:58:46;6.40;65.00
69895;DHT22;57172;52.034;5.090;2023-01-19T16:01:16;6.40;64.70
69895;DHT22;57172;52.034;5.090;2023-01-19T16:03:44;6.30;64.90
69895;DHT22;57172;52.034;5.090;2023-01-19T16:06:11;6.30;64.60
69895;DHT22;57172;52.034;5.090;2023-01-19T16:08:39;6.20;64.60
69895;DHT22;57172;52.034;5.090;2023-01-19T16:11:11;6.20;64.40
69895;DHT22;57172;52.034;5.090;2023-01-19T16:13:39;6.10;65.00
69895;DHT22;57172;52.034;5.090;2023-01-19T16:16:11;6.00;65.30
69895;DHT22;57172;52.034;5.090;2023-01-19T16:18:39;5.90;64.90
69895;DHT22;57172;52.034;5.090;2023-01-19T16:21:10;5.80;65.60
69895;DHT22;57172;52.034;5.090;2023-01-19T16:23:37;5.70;66.40
69895;DHT22;57172;52.034;5.090;2023-01-19T16:26:19;5.70;66.70
69895;DHT22;57172;52.034;5.090;2023-01-19T16:28:48;5.70;67.10
69895;DHT22;57172;52.034;5.090;2023-01-19T16:31:15;5.60;66.90
69895;DHT22;57172;52.034;5.090;2023-01-19T16:33:43;5.60;67.00
69895;DHT22;57172;52.034;5.090;2023-01-19T16:38:49;5.50;67.20
69895;DHT22;57172;52.034;5.090;2023-01-19T16:41:19;5.40;67.20
69895;DHT22;57172;52.034;5.090;2023-01-19T16:43:53;5.40;67.60
69895;DHT22;57172;52.034;5.090;2023-01-19T16:46:23;5.30;67.80
69895;DHT22;57172;52.034;5.090;2023-01-19T16:48:52;5.30;68.10
69895;DHT22;57172;52.034;5.090;2023-01-19T16:51:19;5.30;68.20
69895;DHT22;57172;52.034;5.090;2023-01-19T16:53:47;5.20;67.90
69895;DHT22;57172;52.034;5.090;2023-01-19T16:56:16;5.10;67.80
69895;DHT22;57172;52.034;5.090;2023-01-19T16:58:43;5.10;68.00
69895;DHT22;57172;52.034;5.090;2023-01-19T17:01:15;5.00;68.30
69895;DHT22;57172;52.034;5.090;2023-01-19T17:03:46;5.00;68.00
69895;DHT22;57172;52.034;5.090;2023-01-19T17:06:15;5.00;68.10
69895;DHT22;57172;52.034;5.090;2023-01-19T17:08:44;4.90;68.00
69895;DHT22;57172;52.034;5.090;2023-01-19T17:11:16;4.80;67.60
69895;DHT22;57172;52.034;5.090;2023-01-19T17:13:53;4.70;68.00